createdAt,value
2023-05-02T00:00:21.427Z,101098.25
2023-05-02T00:02:51.400Z,101100.88
2023-05-02T00:05:21.631Z,101093.91
2023-05-02T00:07:54.220Z,101100.88
2023-05-02T00:10:24.161Z,101087.94
2023-05-02T00:12:53.916Z,101083.63
2023-05-02T00:15:23.868Z,101111.03
2023-05-02T00:17:53.676Z,101094.72
2023-05-02T00:20:23.715Z,101081.78
2023-05-02T00:22:56.112Z,101100.72
2023-05-02T00:25:25.953Z,101086.88
2023-05-02T00:27:55.762Z,101066.22
2023-05-02T00:30:25.508Z,101092.13
2023-05-02T00:32:55.984Z,101094.72
2023-05-02T00:35:25.927Z,101097.22
2023-05-02T00:37:58.395Z,101080.03
2023-05-02T00:40:28.160Z,101103.13
2023-05-02T00:42:57.950Z,101047.91
2023-05-02T00:45:27.826Z,101095.19
2023-05-02T00:47:57.754Z,101082.28
2023-05-02T00:50:29.946Z,101104.59
2023-05-02T00:53:03.995Z,101112.28
2023-05-02T00:55:34.721Z,101116.50
2023-05-02T00:58:06.951Z,101112.91
2023-05-02T01:00:49.472Z,101119.78
2023-05-02T01:03:35.365Z,101118.84
2023-05-02T01:06:17.065Z,101109.38
2023-05-02T01:08:55.282Z,101127.31
2023-05-02T01:11:32.213Z,101109.22
2023-05-02T01:14:04.793Z,101119.50
2023-05-02T01:16:38.557Z,101131.56
2023-05-02T01:19:12.346Z,101124.69
2023-05-02T01:21:43.505Z,101100.59
2023-05-02T01:24:25.147Z,101103.28
2023-05-02T01:27:02.787Z,101095.47
2023-05-02T01:29:36.497Z,101129.03
2023-05-02T01:32:09.157Z,101132.38
2023-05-02T01:34:41.444Z,101136.56
2023-05-02T01:37:13.995Z,101129.69
2023-05-02T01:39:45.553Z,101137.34
2023-05-02T01:42:17.842Z,101139.88
2023-05-02T01:44:53.624Z,101132.78
2023-05-02T01:47:25.748Z,101133.50
2023-05-02T01:49:56.375Z,101139.28
2023-05-02T01:52:28.574Z,101151.41
2023-05-02T01:55:00.501Z,101156.47
2023-05-02T01:57:30.622Z,101152.06
2023-05-02T02:00:05.081Z,101163.31
2023-05-02T02:02:45.265Z,101158.91
2023-05-02T02:05:18.918Z,101165.13
2023-05-02T02:07:49.001Z,101165.94
2023-05-02T02:10:19.007Z,101147.75
2023-05-02T02:13:01.843Z,101164.97
2023-05-02T02:15:38.552Z,101172.50
2023-05-02T02:18:13.126Z,101150.88
2023-05-02T02:20:46.894Z,101159.50
2023-05-02T02:23:18.369Z,101138.94
2023-05-02T02:25:49.074Z,101180.41
2023-05-02T02:28:19.017Z,101171.00
2023-05-02T02:30:51.595Z,101115.78
2023-05-02T02:33:22.443Z,101184.81
2023-05-02T02:36:01.121Z,101188.16
2023-05-02T02:38:38.352Z,101183.91
2023-05-02T02:41:17.384Z,101187.19
2023-05-02T02:44:03.253Z,101174.16
2023-05-02T02:46:48.063Z,101183.38
2023-05-02T02:49:31.021Z,101192.81
2023-05-02T02:52:08.394Z,101197.09
2023-05-02T02:54:43.357Z,101179.78
2023-05-02T02:57:20.402Z,101203.84
2023-05-02T02:59:57.669Z,101190.84
2023-05-02T03:02:34.031Z,101159.81
2023-05-02T03:05:06.262Z,101194.22
2023-05-02T03:07:37.070Z,101209.84
2023-05-02T03:10:07.882Z,101212.56
2023-05-02T03:12:40.149Z,101206.56
2023-05-02T03:15:26.492Z,101214.44
2023-05-02T03:17:59.006Z,101197.97
2023-05-02T03:20:28.988Z,101213.38
2023-05-02T03:22:58.749Z,101222.94
2023-05-02T03:25:28.764Z,101218.75
2023-05-02T03:28:00.379Z,101200.56
2023-05-02T03:30:30.447Z,101221.19
2023-05-02T03:33:04.997Z,101205.69
2023-05-02T03:35:35.221Z,101226.28
2023-05-02T03:38:05.365Z,101220.09
2023-05-02T03:40:35.426Z,101226.91
2023-05-02T03:43:05.528Z,101225.91
2023-05-02T03:45:36.063Z,101236.16
2023-05-02T03:48:08.620Z,101242.19
2023-05-02T03:50:40.401Z,101238.59
2023-05-02T03:53:10.781Z,101216.09
2023-05-02T03:55:49.406Z,101238.38
2023-05-02T03:58:27.334Z,101224.41
2023-05-02T04:00:58.009Z,101242.53
2023-05-02T04:03:32.558Z,101259.69
2023-05-02T04:06:04.526Z,101255.09
2023-05-02T04:08:34.631Z,101244.38
2023-05-02T04:11:04.927Z,101260.72
2023-05-02T04:13:34.697Z,101242.34
2023-05-02T04:16:05.028Z,101261.38
2023-05-02T04:18:40.284Z,101279.63
2023-05-02T04:21:12.067Z,101252.75
2023-05-02T04:23:42.579Z,101268.97
2023-05-02T04:26:12.408Z,101269.00
2023-05-02T04:28:54.636Z,101282.59
2023-05-02T04:31:24.469Z,101295.50
2023-05-02T04:33:57.871Z,101294.66
2023-05-02T04:36:30.571Z,101305.94
2023-05-02T04:39:00.364Z,101303.53
2023-05-02T04:41:30.949Z,101312.94
2023-05-02T04:44:05.720Z,101317.84
2023-05-02T04:46:36.166Z,101293.41
2023-05-02T04:49:08.679Z,101321.00
2023-05-02T04:51:38.597Z,101298.56
2023-05-02T04:54:08.362Z,101303.47
2023-05-02T04:56:38.297Z,101349.75
2023-05-02T04:59:08.162Z,101353.09
2023-05-02T05:01:38.563Z,101369.72
2023-05-02T05:04:12.995Z,101348.09
2023-05-02T05:06:43.044Z,101388.16
2023-05-02T05:09:13.454Z,101394.53
2023-05-02T05:11:43.853Z,101393.81
2023-05-02T05:14:13.626Z,101404.22
2023-05-02T05:16:46.077Z,101410.34
2023-05-02T05:19:18.673Z,101412.69
2023-05-02T05:21:48.437Z,101405.13
2023-05-02T05:24:20.761Z,101435.72
2023-05-02T05:26:51.792Z,101450.25
2023-05-02T05:29:21.779Z,101445.78
2023-05-02T05:31:51.650Z,101459.88
2023-05-02T05:34:26.902Z,101456.53
2023-05-02T05:36:59.848Z,101476.75
2023-05-02T05:39:35.772Z,101463.72
2023-05-02T05:42:12.578Z,101452.94
2023-05-02T05:44:43.390Z,101447.97
2023-05-02T05:47:13.338Z,101483.53
2023-05-02T05:49:45.818Z,101493.16
2023-05-02T05:52:15.761Z,101501.53
2023-05-02T05:54:45.529Z,101501.59
2023-05-02T05:57:15.550Z,101497.06
2023-05-02T05:59:46.195Z,101512.44
2023-05-02T06:02:17.402Z,101514.75
2023-05-02T06:04:49.855Z,101514.50
2023-05-02T06:07:22.814Z,101515.69
2023-05-02T06:09:52.541Z,101499.94
2023-05-02T06:12:22.329Z,101525.56
2023-05-02T06:14:52.838Z,101492.06
2023-05-02T06:17:23.180Z,101526.31
2023-05-02T06:19:55.656Z,101536.22
2023-05-02T06:22:25.559Z,101541.66
2023-05-02T06:24:56.328Z,101529.16
2023-05-02T06:27:26.264Z,101483.81
2023-05-02T06:29:56.602Z,101503.59
2023-05-02T06:32:26.588Z,101530.09
2023-05-02T06:34:58.985Z,101506.88
2023-05-02T06:37:28.943Z,101469.50
2023-05-02T06:39:58.974Z,101534.13
2023-05-02T06:42:29.664Z,101518.78
2023-05-02T06:44:59.501Z,101580.84
2023-05-02T06:47:29.364Z,101589.59
2023-05-02T06:50:02.095Z,101561.31
2023-05-02T06:52:32.676Z,101469.81
2023-05-02T06:55:02.512Z,101494.59
2023-05-02T06:57:32.940Z,101482.50
2023-05-02T07:00:03.561Z,101603.41
2023-05-02T07:02:34.124Z,101614.97
2023-05-02T07:05:07.317Z,101499.28
2023-05-02T07:07:37.162Z,101635.34
2023-05-02T07:10:07.675Z,101552.78
2023-05-02T07:12:37.797Z,101574.84
2023-05-02T07:15:09.348Z,101585.03
2023-05-02T07:17:39.332Z,101630.25
2023-05-02T07:20:13.961Z,101540.50
2023-05-02T07:22:43.773Z,101634.97
2023-05-02T07:25:13.705Z,101583.28
2023-05-02T07:27:43.655Z,101645.47
2023-05-02T07:30:14.785Z,101629.34
2023-05-02T07:32:44.665Z,101570.59
2023-05-02T07:35:17.225Z,101579.88
2023-05-02T07:37:47.192Z,101496.34
2023-05-02T07:40:17.529Z,101549.91
2023-05-02T07:42:47.399Z,101550.22
2023-05-02T07:45:17.452Z,101675.25
2023-05-02T07:47:48.264Z,101564.50
2023-05-02T07:50:21.067Z,101640.13
2023-05-02T07:52:51.001Z,101694.09
2023-05-02T07:55:21.646Z,101617.81
2023-05-02T07:57:51.471Z,101666.81
2023-05-02T08:00:22.286Z,101702.06
2023-05-02T08:02:52.234Z,101694.81
2023-05-02T08:05:25.042Z,101673.28
2023-05-02T08:07:54.844Z,101662.00
2023-05-02T08:10:24.708Z,101637.09
2023-05-02T08:12:54.526Z,101611.44
2023-05-02T08:15:24.428Z,101624.84
2023-05-02T08:17:54.562Z,101651.16
2023-05-02T08:20:27.074Z,101676.25
2023-05-02T08:22:59.272Z,101639.81
2023-05-02T08:25:30.636Z,101576.69
2023-05-02T08:28:00.477Z,101600.59
2023-05-02T08:30:30.441Z,101641.53
2023-05-02T08:33:00.375Z,101750.00
2023-05-02T08:35:34.407Z,101745.19
2023-05-02T08:38:04.232Z,101756.88
2023-05-02T08:40:42.693Z,101764.06
2023-05-02T08:43:14.660Z,101616.53
2023-05-02T08:45:46.178Z,101773.53
2023-05-02T08:48:17.486Z,101668.09
2023-05-02T08:50:51.238Z,101764.03
2023-05-02T08:53:21.502Z,101655.75
2023-05-02T08:55:52.142Z,101721.44
2023-05-02T08:58:22.023Z,101757.69
2023-05-02T09:00:53.268Z,101676.69
2023-05-02T09:03:31.943Z,101707.91
2023-05-02T09:06:12.951Z,101791.97
2023-05-02T09:08:44.354Z,101646.47
2023-05-02T09:11:16.134Z,101800.47
2023-05-02T09:13:47.380Z,101685.91
2023-05-02T09:16:18.738Z,101747.38
2023-05-02T09:18:50.021Z,101778.28
2023-05-02T09:21:24.246Z,101801.72
2023-05-02T09:23:55.446Z,101825.22
2023-05-02T09:26:29.549Z,101776.88
2023-05-02T09:29:02.422Z,101709.84
2023-05-02T09:34:13.073Z,101702.72
2023-05-02T09:36:47.312Z,101778.94
2023-05-02T09:39:19.575Z,101715.41
2023-05-02T09:41:50.881Z,101706.53
2023-05-02T09:44:22.330Z,101719.50
2023-05-02T09:46:53.712Z,101796.69
2023-05-02T09:49:42.533Z,101807.59
2023-05-02T09:52:19.981Z,101805.34
2023-05-02T09:54:50.849Z,101844.38
2023-05-02T09:57:20.767Z,101843.56
2023-05-02T09:59:58.340Z,101872.69
2023-05-02T10:02:28.813Z,101759.56
2023-05-02T10:05:00.410Z,101838.84
2023-05-02T10:07:33.564Z,101751.66
2023-05-02T10:10:05.633Z,101747.44
2023-05-02T10:12:36.351Z,101873.75
2023-05-02T10:15:07.628Z,101788.84
2023-05-02T10:17:43.917Z,101847.34
2023-05-02T10:20:17.274Z,101884.47
2023-05-02T10:22:52.537Z,101867.41
2023-05-02T10:25:22.622Z,101874.94
2023-05-02T10:27:52.688Z,101881.94
2023-05-02T10:30:23.012Z,101878.88
2023-05-02T10:32:56.022Z,101783.25
2023-05-02T10:35:27.697Z,101894.91
2023-05-02T10:38:01.290Z,101853.41
2023-05-02T10:40:31.696Z,101871.00
2023-05-02T10:43:01.760Z,101854.47
2023-05-02T10:45:35.876Z,101863.19
2023-05-02T10:48:19.953Z,101850.63
2023-05-02T10:50:51.550Z,101897.78
2023-05-02T10:53:33.055Z,101852.72
2023-05-02T10:56:15.700Z,101865.47
2023-05-02T10:58:46.406Z,101862.91
2023-05-02T11:01:40.038Z,101863.13
2023-05-02T11:04:11.455Z,101910.09
2023-05-02T11:07:16.951Z,101787.78
2023-05-02T11:09:49.373Z,101894.88
2023-05-02T11:12:47.263Z,101774.75
2023-05-02T11:15:17.166Z,101766.00
2023-05-02T11:18:03.174Z,101893.78
2023-05-02T11:20:33.580Z,101921.56
2023-05-02T11:23:26.619Z,101867.50
2023-05-02T11:26:03.475Z,101853.78
2023-05-02T11:28:48.553Z,101778.03
2023-05-02T11:32:06.875Z,101899.28
2023-05-02T11:34:47.363Z,101881.59
2023-05-02T11:37:18.423Z,101822.84
2023-05-02T11:39:49.487Z,101880.09
2023-05-02T11:42:35.058Z,101767.63
2023-05-02T11:45:05.034Z,101801.50
2023-05-02T11:47:36.506Z,101796.28
2023-05-02T11:50:08.071Z,101850.25
2023-05-02T11:52:41.731Z,101911.31
2023-05-02T11:55:14.586Z,101817.72
2023-05-02T11:57:47.004Z,101798.72
2023-05-02T12:00:18.142Z,101868.56
2023-05-02T12:02:49.657Z,101881.56
2023-05-02T12:05:31.674Z,101911.94
2023-05-02T12:08:02.756Z,101824.25
2023-05-02T12:10:42.032Z,101885.84
2023-05-02T12:13:14.691Z,101905.06
2023-05-02T12:15:44.847Z,101905.47
2023-05-02T12:18:16.046Z,101918.81
2023-05-02T12:20:46.839Z,101905.41
2023-05-02T12:23:17.083Z,101927.75
2023-05-02T12:25:46.885Z,101935.84
2023-05-02T12:28:21.208Z,101943.53
2023-05-02T12:30:52.362Z,101948.19
2023-05-02T12:33:22.197Z,101885.66
2023-05-02T12:35:53.014Z,101931.41
2023-05-02T12:38:23.745Z,101942.78
2023-05-02T12:40:57.866Z,101934.34
2023-05-02T12:43:30.259Z,101948.91
2023-05-02T12:46:12.935Z,101945.19
2023-05-02T12:48:44.887Z,101887.50
2023-05-02T12:51:25.556Z,101968.56
2023-05-02T12:53:55.318Z,101961.06
2023-05-02T12:56:27.766Z,101961.78
2023-05-02T12:59:01.560Z,101947.63
2023-05-02T13:01:31.667Z,101963.69
2023-05-02T13:04:01.536Z,101960.25
2023-05-02T13:06:31.589Z,101972.72
2023-05-02T13:09:02.065Z,101966.81
2023-05-02T13:11:31.793Z,101978.38
2023-05-02T13:14:06.014Z,101979.47
2023-05-02T13:16:37.555Z,101955.16
2023-05-02T13:19:08.591Z,101977.75
2023-05-02T13:21:38.328Z,101956.59
2023-05-02T13:24:08.954Z,101975.16
2023-05-02T13:26:38.696Z,101984.38
2023-05-02T13:29:12.780Z,101983.56
2023-05-02T13:31:42.827Z,101959.13
2023-05-02T13:34:12.716Z,101947.50
2023-05-02T13:36:46.508Z,101988.94
2023-05-02T13:39:16.726Z,101998.69
2023-05-02T13:41:46.582Z,101996.19
2023-05-02T13:44:18.898Z,101999.13
2023-05-02T13:46:48.697Z,101989.97
2023-05-02T13:49:19.310Z,101996.25
2023-05-02T13:51:49.970Z,102001.25
2023-05-02T13:54:19.993Z,101966.16
2023-05-02T13:56:49.766Z,101994.09
2023-05-02T13:59:22.094Z,101988.84
2023-05-02T14:01:52.322Z,102000.88
2023-05-02T14:04:23.533Z,102004.25
2023-05-02T14:06:53.545Z,102008.97
2023-05-02T14:09:23.511Z,102015.56
2023-05-02T14:11:53.231Z,102001.69
2023-05-02T14:14:25.609Z,102000.25
2023-05-02T14:16:55.425Z,101999.34
2023-05-02T14:19:25.182Z,102011.28
2023-05-02T14:21:54.917Z,101976.13
2023-05-02T14:24:24.678Z,102011.84
2023-05-02T14:26:54.405Z,102001.97
2023-05-02T14:29:26.886Z,102015.16
2023-05-02T14:31:56.675Z,101999.41
2023-05-02T14:34:27.352Z,102017.91
2023-05-02T14:36:57.107Z,101986.81
2023-05-02T14:39:27.783Z,102014.84
2023-05-02T14:41:57.510Z,101993.38
2023-05-02T14:44:29.802Z,102022.94
2023-05-02T14:46:59.660Z,102020.81
2023-05-02T14:49:30.439Z,102022.50
2023-05-02T14:52:00.378Z,102004.09
2023-05-02T14:54:31.229Z,102029.69
2023-05-02T14:57:02.355Z,102011.59
2023-05-02T14:59:36.228Z,102014.13
2023-05-02T15:02:06.147Z,102020.63
2023-05-02T15:04:36.035Z,102039.47
2023-05-02T15:07:06.402Z,102027.94
2023-05-02T15:09:36.265Z,102034.69
2023-05-02T15:12:06.280Z,102018.06
2023-05-02T15:14:38.617Z,102030.03
2023-05-02T15:17:08.433Z,101977.94
2023-05-02T15:19:38.266Z,102035.09
2023-05-02T15:22:07.994Z,102035.41
2023-05-02T15:24:37.744Z,102036.50
2023-05-02T15:27:09.597Z,102029.25
2023-05-02T15:29:42.033Z,102034.72
2023-05-02T15:32:11.944Z,102023.53
2023-05-02T15:34:41.785Z,102041.75
2023-05-02T15:37:11.507Z,102018.44
2023-05-02T15:39:41.339Z,102029.56
2023-05-02T15:42:11.136Z,102053.75
2023-05-02T15:44:43.467Z,102051.19
2023-05-02T15:47:13.196Z,102063.50
2023-05-02T15:49:43.525Z,101949.31
2023-05-02T15:52:13.317Z,102057.19
2023-05-02T15:54:43.222Z,102061.06
2023-05-02T15:57:13.020Z,102056.66
2023-05-02T15:59:45.537Z,102063.53
2023-05-02T16:02:15.499Z,102067.13
2023-05-02T16:04:45.624Z,102059.56
2023-05-02T16:07:15.402Z,102038.31
2023-05-02T16:09:45.140Z,102060.53
2023-05-02T16:12:14.865Z,102062.59
2023-05-02T16:14:47.220Z,102036.25
2023-05-02T16:17:16.948Z,102045.63
2023-05-02T16:19:46.754Z,102065.09
2023-05-02T16:22:16.492Z,102065.31
2023-05-02T16:24:46.219Z,102072.78
2023-05-02T16:27:15.982Z,102060.66
2023-05-02T16:29:48.704Z,102084.44
2023-05-02T16:32:18.548Z,102067.97
2023-05-02T16:34:48.276Z,102083.31
2023-05-02T16:37:17.979Z,102086.38
2023-05-02T16:39:47.785Z,102089.78
2023-05-02T16:42:17.506Z,102097.09
2023-05-02T16:44:50.126Z,102106.13
2023-05-02T16:47:19.881Z,102101.63
2023-05-02T16:49:49.659Z,102072.25
2023-05-02T16:52:19.365Z,102094.75
2023-05-02T16:54:49.159Z,102072.19
2023-05-02T16:57:19.993Z,102094.28
2023-05-02T16:59:54.933Z,102073.28
2023-05-02T17:02:24.974Z,102086.59
2023-05-02T17:04:54.947Z,102091.09
2023-05-02T17:07:24.780Z,102095.06
2023-05-02T17:09:54.585Z,102098.03
2023-05-02T17:12:25.941Z,102084.53
2023-05-02T17:14:58.327Z,102094.97
2023-05-02T17:17:28.097Z,102092.31
2023-05-02T17:19:57.976Z,102108.78
2023-05-02T17:22:28.214Z,102112.22
2023-05-02T17:24:57.987Z,102119.03
2023-05-02T17:27:28.788Z,102106.06
2023-05-02T17:30:01.621Z,102118.94
2023-05-02T17:32:33.888Z,102105.50
2023-05-02T17:35:03.614Z,102112.59
2023-05-02T17:37:33.657Z,102117.25
2023-05-02T17:40:05.205Z,102121.25
2023-05-02T17:42:35.171Z,102134.75
2023-05-02T17:45:08.566Z,102096.16
2023-05-02T17:47:38.398Z,102132.66
2023-05-02T17:50:09.659Z,102134.88
2023-05-02T17:52:39.694Z,102136.22
2023-05-02T17:55:11.254Z,102118.50
2023-05-02T17:57:41.050Z,102140.50
2023-05-02T18:00:14.807Z,102129.41
2023-05-02T18:02:44.739Z,102128.34
2023-05-02T18:05:14.705Z,102132.09
2023-05-02T18:07:44.490Z,102138.97
2023-05-02T18:10:14.964Z,102148.31
2023-05-02T18:12:44.864Z,102126.91
2023-05-02T18:15:17.909Z,102128.78
2023-05-02T18:17:48.536Z,102153.59
2023-05-02T18:20:18.647Z,102141.50
2023-05-02T18:22:48.471Z,102148.09
2023-05-02T18:25:18.271Z,102144.94
2023-05-02T18:27:48.025Z,102108.94
2023-05-02T18:30:20.577Z,102131.53
2023-05-02T18:32:50.522Z,102141.03
2023-05-02T18:35:20.869Z,102143.00
2023-05-02T18:37:50.624Z,102131.44
2023-05-02T18:40:21.024Z,102133.28
2023-05-02T18:42:50.792Z,102155.09
2023-05-02T18:45:23.102Z,102151.84
2023-05-02T18:47:53.810Z,102135.09
2023-05-02T18:50:23.739Z,102150.88
2023-05-02T18:52:53.476Z,102161.72
2023-05-02T18:55:25.279Z,102151.34
2023-05-02T18:57:55.293Z,102144.31
2023-05-02T19:00:30.306Z,102161.84
2023-05-02T19:03:00.381Z,102165.44
2023-05-02T19:05:30.425Z,102167.94
2023-05-02T19:08:00.153Z,102143.25
2023-05-02T19:10:29.972Z,102174.97
2023-05-02T19:12:59.718Z,102178.44
2023-05-02T19:15:32.310Z,102173.22
2023-05-02T19:18:02.257Z,102183.09
2023-05-02T19:20:32.448Z,102190.63
2023-05-02T19:23:18.290Z,102193.94
2023-05-02T19:25:49.337Z,102188.44
2023-05-02T19:28:19.860Z,102199.78
2023-05-02T19:30:52.557Z,102183.13
2023-05-02T19:33:22.326Z,102172.28
2023-05-02T19:35:54.306Z,102198.47
2023-05-02T19:38:24.186Z,102198.09
2023-05-02T19:40:56.885Z,102195.41
2023-05-02T19:43:26.646Z,102173.78
2023-05-02T19:45:59.587Z,102200.84
2023-05-02T19:48:29.393Z,102214.34
2023-05-02T19:50:59.235Z,102200.28
2023-05-02T19:53:30.774Z,102220.94
2023-05-02T19:56:00.743Z,102225.16
2023-05-02T19:58:31.293Z,102214.22
2023-05-02T20:01:03.839Z,102228.16
2023-05-02T20:03:34.903Z,102232.19
2023-05-02T20:06:05.086Z,102221.41
2023-05-02T20:08:35.179Z,102220.81
2023-05-02T20:11:05.331Z,102212.38
2023-05-02T20:13:35.205Z,102226.22
2023-05-02T20:16:07.913Z,102240.44
2023-05-02T20:18:45.724Z,102220.84
2023-05-02T20:21:16.586Z,102208.06
2023-05-02T20:23:46.380Z,102237.94
2023-05-02T20:26:18.052Z,102247.69
2023-05-02T20:28:47.982Z,102223.25
2023-05-02T20:31:20.685Z,102250.13
2023-05-02T20:33:50.610Z,102247.16
2023-05-02T20:36:21.067Z,102247.09
2023-05-02T20:38:50.872Z,102238.34
2023-05-02T20:41:21.541Z,102250.19
2023-05-02T20:43:51.889Z,102261.38
2023-05-02T20:46:24.338Z,102259.22
2023-05-02T20:48:55.029Z,102263.47
2023-05-02T20:51:24.829Z,102259.84
2023-05-02T20:53:54.674Z,102243.31
2023-05-02T20:56:24.442Z,102256.44
2023-05-02T20:58:54.256Z,102252.13
2023-05-02T21:01:26.760Z,102275.97
2023-05-02T21:03:57.434Z,102276.31
2023-05-02T21:06:27.309Z,102272.56
2023-05-02T21:08:58.538Z,102269.84
2023-05-02T21:11:28.380Z,102267.88
2023-05-02T21:13:58.114Z,102269.78
2023-05-02T21:16:30.477Z,102261.31
2023-05-02T21:19:00.251Z,102255.69
2023-05-02T21:21:29.992Z,102268.19
2023-05-02T21:24:00.282Z,102263.31
2023-05-02T21:26:30.809Z,102218.63
2023-05-02T21:29:00.562Z,102263.25
2023-05-02T21:31:34.966Z,102251.38
2023-05-02T21:34:04.864Z,102273.59
2023-05-02T21:36:34.686Z,102269.06
2023-05-02T21:39:05.464Z,102274.81
2023-05-02T21:41:35.210Z,102266.75
2023-05-02T21:44:05.022Z,102277.66
2023-05-02T21:46:37.347Z,102278.69
2023-05-02T21:49:07.203Z,102274.94
2023-05-02T21:51:38.818Z,102271.47
2023-05-02T21:54:08.717Z,102267.66
2023-05-02T21:56:38.498Z,102279.91
2023-05-02T21:59:08.272Z,102268.84
2023-05-02T22:01:40.618Z,102276.13
2023-05-02T22:04:10.382Z,102247.56
2023-05-02T22:06:40.189Z,102277.25
2023-05-02T22:09:10.500Z,102267.31
2023-05-02T22:11:40.306Z,102271.25
2023-05-02T22:14:10.596Z,102245.81
2023-05-02T22:16:43.367Z,102271.13
2023-05-02T22:19:14.694Z,102281.44
2023-05-02T22:21:44.518Z,102279.16
2023-05-02T22:24:14.303Z,102262.84
2023-05-02T22:26:44.092Z,102288.13
2023-05-02T22:29:13.834Z,102285.00
2023-05-02T22:31:47.338Z,102299.00
2023-05-02T22:34:17.119Z,102274.03
2023-05-02T22:36:46.858Z,102284.34
2023-05-02T22:39:16.920Z,102288.09
2023-05-02T22:41:47.079Z,102302.69
2023-05-02T22:44:16.920Z,102284.84
2023-05-02T22:46:49.410Z,102305.38
2023-05-02T22:49:19.958Z,102301.94
2023-05-02T22:51:49.763Z,102291.06
2023-05-02T22:54:19.532Z,102280.56
2023-05-02T22:56:49.710Z,102307.78
2023-05-02T22:59:19.649Z,102290.00
2023-05-02T23:01:52.057Z,102312.38
2023-05-02T23:04:21.920Z,102315.88
2023-05-02T23:06:51.774Z,102307.69
2023-05-02T23:09:21.645Z,102309.03
2023-05-02T23:11:51.597Z,102307.50
2023-05-02T23:14:23.090Z,102311.59
2023-05-02T23:16:56.670Z,102303.38
2023-05-02T23:19:26.466Z,102312.44
2023-05-02T23:21:56.172Z,102317.03
2023-05-02T23:24:26.028Z,102312.81
2023-05-02T23:26:55.813Z,102260.97
2023-05-02T23:29:25.845Z,102313.19
2023-05-02T23:31:58.479Z,102321.53
2023-05-02T23:34:28.498Z,102320.38
2023-05-02T23:36:58.286Z,102320.56
2023-05-02T23:39:28.946Z,102310.38
2023-05-02T23:41:58.710Z,102324.06
2023-05-02T23:44:28.466Z,102326.00
2023-05-02T23:47:01.080Z,102323.88
2023-05-02T23:49:30.906Z,102321.06
2023-05-02T23:52:02.788Z,102325.03
2023-05-02T23:54:33.694Z,102324.84
2023-05-02T23:57:03.634Z,102329.59
2023-05-02T23:59:33.398Z,102305.66
